Relevés horaires Beauvechain (Belgique)


Relevés horaires à Beauvechain - Dimanche 12 Mars 2017
Heure UTC1 Température [°C] Vent [km/h] Hum. [%] Pres.4 [hPa] Visi. [Km] Nébu. [octa] Préc.5 [mm] Cond.
2m. Res. Ros. Dir.2 Vit. Moy. Raf.3
23:00 8.5 8.5 2.1 NNO 1.9 -- 1.9 64 1017.7(1.4/3h) 20 -- -- --
22:00 8.7 8.7 1.8 NNO 1.9 -- 1.9 62 1017.2(1.5/3h) 20 -- -- --
21:00 10.6 10.6 1.2 NNO 1.9 -- 5.6 52 1016.6(1.8/3h) 20 -- -- --
20:00 11.3 11.3 2.3 NNO 1.9 -- 5.6 54 1016.1(2.0/3h) 20 -- -- --
19:00 12.1 12.1 2.6 ENE 3.7 -- 5.6 52 1015.3(2.0/3h) 20 -- -- --
18:00 13.1 13.1 3.3 NNO 1.9 -- 7.4 51 1014.6(1.5/3h) 20 -- -- --
17:00 14.2 14.2 4.6 NNO 1.9 -- 3.7 52 1013.7(0.6/3h) 20 -- -- --
16:00 15.6 15.6 3.9 NNE 3.7 -- 5.6 46 1013.1(0.0/3h) 20 -- -- --
15:00 16.0 16.0 3.1 NNO 1.9 -- 7.4 42 1012.8(-0.4/3h) 20 -- -- --
14:00 15.3 15.3 2.3 E 3.7 -- 7.4 41 1013.1(-0.6/3h) 20 -- -- --
13:00 14.8 14.8 1.8 NNO 1.9 -- 7.4 41 1013.2(-0.5/3h) 20 -- -- --
12:00 13.9 13.9 2.0 ESE 5.6 -- 7.4 44 1013.5(-0.2/3h) 20 -- -- --
11:00 12.3 12.3 3.2 E 3.7 -- 7.4 54 1013.8(-0.2/3h) 20 -- -- --
10:00 11.1 11.1 3.0 ESE 3.7 -- 5.6 57 1013.8(-0.2/3h) 20 -- -- --
09:00 8.3 8.3 1.3 ESE 3.7 -- 7.4 61 1014(-0.1/3h) 20 -- -- --
08:00 5.8 5.8 1.0 E 3.7 -- 5.6 71 1014.5(-0.2/3h) 20 -- -- --
07:00 4.3 4.3 0.7 E 3.7 -- 5.6 77 1014.6(-0.6/3h) 20 -- -- --
06:00 4.8 4.8 0.6 E 3.7 -- 5.6 74 1014.3(-1.1/3h) 20 -- -- --
05:00 4.5 4.5 1.0 E 3.7 -- 5.6 78 1014.7(-1.1/3h) 20 -- -- --
04:00 4.5 4.5 1.6 NNO 1.9 -- 1.9 81 1015.2(-1.2/3h) 19 -- -- --
03:00 4.0 4.0 2.1 NNO 1.9 -- 3.7 87 1015.7(-1.1/3h) 15 -- -- --
02:00 4.9 4.9 1.7 NNO 1.9 -- 3.7 80 1015.8(-1.1/3h) 20 -- -- --
01:00 7.1 7.1 0.9 NNO 1.9 -- 3.7 65 1016.3(-0.9/3h) 20 -- -- --
00:00 6.8 6.8 2.1 NNO 0.0 -- 7.4 72 1016.6(-1.1/3h) 20 -- -- --

1 Coordinated Universal Time. Actuellement il est 12:00 locale et 11:00 UTC.

2 Le vent souffle depuis la direction indiquée vers la direction oposée.

3 Les rafales max. sont disponible 40 min après l'heure du relevé.

4 Pour les stations d'altitude (plus de 600m) le géopotentiel du niveau le plus proche de la pression obligatoire est indiqué.

5 Les stations disposant d'un diffuseur peuvent indiquer "trace". Cela signifie que des précipitations ont touchés le sol mais que la quantité est inférieure à 0.1 mm.

Récapitulatif de la journée
Température [°C] Vent [km/h] Ensoleillement4 [h] Precipitations totale5 [mm] Pression [Hpa]
Min1 Max.2 Moy.3 Max. Min Max.
3.5 16.5 0 7.4 0 h 0 min 0 1012.8 1017.7

1 Température minimale relevée entre 18:00 UTC la veille et 18:00 UTC le jour donné.

2 Température maximale relevée entre 06:00 UTC le jour donné et 06:00 UTC le lendemain.

3 Vent moyen de la journée basé sur les relevés horaires.

4 Ensoleillement en heures relevé entre 06:00 UTC la veille et 06:00 UTC le jour donné.

5 Précipitations totales tombées entre 06:00 UTC la jour donné et 06:00 UTC le lendemain.

Graphiques horaires